Time;durP1;ratioP1;P1;durP2;ratioP2;P2;SDS_P1;SDS_P2;PMS_P1;PMS_P2;Temp;Humidity;BMP_temperature;BMP_pressure;BME280_temperature;BME280_humidity;BME280_pressure;Samples;Min_cycle;Max_cycle;Signal;HPM_P1;HPM_P2
2021/01/24 00:00:06;;;;;;;21.77;15.35;;;;;;;;;;6231670;28;20132;-71
2021/01/24 00:03:07;;;;;;;20.70;14.15;;;;;;;;;;6231140;28;20045;-71
2021/01/24 00:06:08;;;;;;;20.80;14.65;;;;;;;;;;6230402;28;20056;-71
2021/01/24 00:09:09;;;;;;;23.85;16.05;;;;;;;;;;6231756;28;20141;-71
2021/01/24 00:12:10;;;;;;;21.40;14.70;;;;;;;;;;6233450;28;20050;-70
2021/01/24 00:15:12;;;;;;;20.70;14.98;;;;;;;;;;6233118;28;20042;-70
2021/01/24 00:18:13;;;;;;;25.08;16.58;;;;;;;;;;6205728;28;20041;-70
2021/01/24 00:21:14;;;;;;;22.85;16.05;;;;;;;;;;6231969;28;20083;-72
2021/01/24 00:24:15;;;;;;;21.40;15.85;;;;;;;;;;6237313;28;20536;-71
2021/01/24 00:27:16;;;;;;;21.70;16.15;;;;;;;;;;6233525;28;20469;-71
2021/01/24 00:30:19;;;;;;;18.42;15.07;;;;;;;;;;6227735;28;20053;-70
2021/01/24 00:33:20;;;;;;;24.67;16.40;;;;;;;;;;6229450;28;20045;-71
2021/01/24 00:36:21;;;;;;;23.55;15.65;;;;;;;;;;6235760;28;20099;-71
2021/01/24 00:39:22;;;;;;;21.67;15.25;;;;;;;;;;6234581;28;20050;-71
2021/01/24 00:42:23;;;;;;;21.10;15.07;;;;;;;;;;6229252;28;20476;-71
2021/01/24 00:45:25;;;;;;;20.85;15.48;;;;;;;;;;6226423;28;20041;-69
2021/01/24 00:48:26;;;;;;;22.52;16.38;;;;;;;;;;6228912;28;20057;-68
2021/01/24 00:51:27;;;;;;;22.65;16.45;;;;;;;;;;6230731;28;20063;-69
2021/01/24 00:54:28;;;;;;;23.95;16.00;;;;;;;;;;6227946;28;20054;-68
2021/01/24 00:57:29;;;;;;;22.75;17.00;;;;;;;;;;6229117;28;20313;-70
2021/01/24 01:00:31;;;;;;;22.95;16.13;;;;;;;;;;6237665;28;20423;-68
2021/01/24 01:03:32;;;;;;;22.83;16.67;;;;;;;;;;6233954;28;20064;-70
2021/01/24 01:06:34;;;;;;;22.88;16.40;;;;;;;;;;6238615;28;20050;-67
2021/01/24 01:09:36;;;;;;;23.98;16.98;;;;;;;;;;6230883;28;20057;-68
2021/01/24 01:12:37;;;;;;;20.85;15.93;;;;;;;;;;6234801;28;20041;-68
2021/01/24 01:15:40;;;;;;;23.77;16.88;;;;;;;;;;6234115;28;20038;-70
2021/01/24 01:18:41;;;;;;;23.58;16.90;;;;;;;;;;6233645;28;20144;-68
2021/01/24 01:21:42;;;;;;;23.45;16.80;;;;;;;;;;6233468;28;20049;-68
2021/01/24 01:24:43;;;;;;;26.48;17.05;;;;;;;;;;6233546;28;20102;-68
2021/01/24 01:27:44;;;;;;;25.67;17.42;;;;;;;;;;6236991;28;20686;-68
2021/01/24 01:30:46;;;;;;;23.27;16.45;;;;;;;;;;6236735;28;20042;-68
2021/01/24 01:33:47;;;;;;;23.60;16.73;;;;;;;;;;6232260;28;20053;-67
2021/01/24 01:36:48;;;;;;;23.13;16.13;;;;;;;;;;6236746;28;20087;-70
2021/01/24 01:39:49;;;;;;;25.10;16.63;;;;;;;;;;6236671;28;20132;-68
2021/01/24 01:42:50;;;;;;;21.73;16.27;;;;;;;;;;6234911;28;20048;-68
2021/01/24 01:45:52;;;;;;;22.83;16.17;;;;;;;;;;6237740;28;20674;-67
2021/01/24 01:48:53;;;;;;;22.20;15.20;;;;;;;;;;6236668;28;20132;-67
2021/01/24 01:51:54;;;;;;;22.95;16.50;;;;;;;;;;6236647;28;20373;-67
2021/01/24 01:54:57;;;;;;;23.42;16.45;;;;;;;;;;6234933;28;20365;-69
2021/01/24 01:57:58;;;;;;;23.05;16.67;;;;;;;;;;6234710;28;20045;-69
2021/01/24 02:01:01;;;;;;;24.48;17.25;;;;;;;;;;6231140;28;20412;-67
2021/01/24 02:04:13;;;;;;;24.80;17.25;;;;;;;;;;6231450;28;20041;-68
2021/01/24 02:07:17;;;;;;;22.80;16.50;;;;;;;;;;6231768;28;20051;-68
2021/01/24 02:10:23;;;;;;;23.67;17.05;;;;;;;;;;6232062;28;20055;-68
2021/01/24 02:13:33;;;;;;;22.40;16.88;;;;;;;;;;6235600;28;20052;-70
2021/01/24 02:16:36;;;;;;;22.27;16.23;;;;;;;;;;6234761;28;20053;-69
2021/01/24 02:19:53;;;;;;;21.52;15.73;;;;;;;;;;6233058;28;20042;-68
2021/01/24 02:22:54;;;;;;;20.33;15.90;;;;;;;;;;6236075;28;20059;-68
2021/01/24 02:26:02;;;;;;;26.17;16.83;;;;;;;;;;6236697;28;20049;-69
2021/01/24 02:29:13;;;;;;;25.15;16.95;;;;;;;;;;6235000;28;20049;-69
2021/01/24 02:32:16;;;;;;;26.45;17.40;;;;;;;;;;6231307;28;20049;-68
2021/01/24 02:35:17;;;;;;;27.00;16.80;;;;;;;;;;6239573;28;20487;-70
2021/01/24 02:38:19;;;;;;;28.42;15.90;;;;;;;;;;6231307;28;20126;-68
2021/01/24 02:41:21;;;;;;;22.30;16.27;;;;;;;;;;6230940;28;20045;-68
2021/01/24 02:44:23;;;;;;;22.67;16.45;;;;;;;;;;6236490;28;20484;-68
2021/01/24 02:47:25;;;;;;;24.05;16.45;;;;;;;;;;6233398;28;20480;-66
2021/01/24 02:50:27;;;;;;;22.33;16.65;;;;;;;;;;6233595;28;20041;-70
2021/01/24 02:53:30;;;;;;;24.35;17.67;;;;;;;;;;6238114;28;20046;-68
2021/01/24 02:56:31;;;;;;;23.60;16.75;;;;;;;;;;6239105;28;20042;-68
2021/01/24 02:59:33;;;;;;;24.00;17.25;;;;;;;;;;6238487;28;20057;-69
2021/01/24 03:02:36;;;;;;;23.42;16.63;;;;;;;;;;6242172;28;20047;-68
2021/01/24 03:05:37;;;;;;;27.17;16.95;;;;;;;;;;6236446;28;20041;-70
2021/01/24 03:08:38;;;;;;;20.27;15.75;;;;;;;;;;6239651;28;20510;-70
2021/01/24 03:11:41;;;;;;;22.17;16.25;;;;;;;;;;6237938;28;20475;-70
2021/01/24 03:14:42;;;;;;;22.40;15.23;;;;;;;;;;6238220;28;20053;-70
2021/01/24 03:17:46;;;;;;;21.95;15.48;;;;;;;;;;6239801;28;20049;-68
2021/01/24 03:20:49;;;;;;;19.73;14.70;;;;;;;;;;6246500;28;20384;-69
2021/01/24 03:23:52;;;;;;;20.85;15.60;;;;;;;;;;6236189;28;20044;-68
2021/01/24 03:26:53;;;;;;;20.52;14.70;;;;;;;;;;6241622;28;20728;-70
2021/01/24 03:29:54;;;;;;;20.70;14.93;;;;;;;;;;6231554;28;20053;-71
2021/01/24 03:32:57;;;;;;;23.77;14.88;;;;;;;;;;6241602;28;20053;-67
2021/01/24 03:35:58;;;;;;;19.33;13.82;;;;;;;;;;6237721;28;20084;-67
2021/01/24 03:38:59;;;;;;;22.35;14.18;;;;;;;;;;6240162;28;20672;-68
2021/01/24 03:42:00;;;;;;;21.42;14.68;;;;;;;;;;6234223;28;20046;-67
2021/01/24 03:45:01;;;;;;;18.80;13.63;;;;;;;;;;6239360;28;20100;-73
2021/01/24 03:48:04;;;;;;;21.38;14.32;;;;;;;;;;6242487;28;20084;-66
2021/01/24 03:51:05;;;;;;;22.67;15.15;;;;;;;;;;6236733;28;20049;-67
2021/01/24 03:54:06;;;;;;;19.17;13.95;;;;;;;;;;6238683;28;20051;-68
2021/01/24 03:57:07;;;;;;;20.75;14.93;;;;;;;;;;6239981;28;20488;-68
2021/01/24 04:00:09;;;;;;;18.63;13.80;;;;;;;;;;6237587;28;20171;-67
2021/01/24 04:03:11;;;;;;;20.52;14.45;;;;;;;;;;6240388;28;20641;-68
2021/01/24 04:06:12;;;;;;;22.00;14.90;;;;;;;;;;6236319;28;20126;-67
2021/01/24 04:09:13;;;;;;;18.13;13.52;;;;;;;;;;6233996;28;20555;-70
2021/01/24 04:12:14;;;;;;;21.75;14.60;;;;;;;;;;6228652;28;20129;-67
2021/01/24 04:15:17;;;;;;;23.02;14.32;;;;;;;;;;6226369;28;20050;-70
2021/01/24 04:18:19;;;;;;;20.90;14.13;;;;;;;;;;6225472;28;20054;-68
2021/01/24 04:21:20;;;;;;;18.98;13.68;;;;;;;;;;6232692;28;20131;-71
2021/01/24 04:24:23;;;;;;;19.33;13.93;;;;;;;;;;6229272;28;20060;-69
2021/01/24 04:27:24;;;;;;;21.48;14.63;;;;;;;;;;6230753;28;20115;-69
2021/01/24 04:30:25;;;;;;;25.23;14.32;;;;;;;;;;6238076;28;20041;-69
2021/01/24 04:33:27;;;;;;;20.00;13.23;;;;;;;;;;6233961;28;20052;-68
2021/01/24 04:36:28;;;;;;;19.05;13.95;;;;;;;;;;6244484;28;20495;-67
2021/01/24 04:39:29;;;;;;;17.65;13.55;;;;;;;;;;6242384;28;20125;-68
2021/01/24 04:42:30;;;;;;;18.67;14.27;;;;;;;;;;6234333;28;20049;-71
2021/01/24 04:45:32;;;;;;;19.60;14.25;;;;;;;;;;6233661;28;20582;-69
2021/01/24 04:48:34;;;;;;;19.77;13.70;;;;;;;;;;6234992;28;20414;-70
2021/01/24 04:51:35;;;;;;;20.55;13.75;;;;;;;;;;6237117;28;20042;-72
2021/01/24 04:54:37;;;;;;;21.05;14.18;;;;;;;;;;6239123;28;20042;-68
2021/01/24 04:57:38;;;;;;;20.58;14.32;;;;;;;;;;6240225;28;20136;-68
2021/01/24 05:00:39;;;;;;;19.50;14.30;;;;;;;;;;6243749;28;20059;-71
2021/01/24 05:03:41;;;;;;;19.85;13.45;;;;;;;;;;6237119;28;20132;-68
2021/01/24 05:06:42;;;;;;;17.70;13.77;;;;;;;;;;6239826;28;20053;-71
2021/01/24 05:09:46;;;;;;;19.17;14.88;;;;;;;;;;6241197;28;20087;-71
2021/01/24 05:12:47;;;;;;;20.67;14.80;;;;;;;;;;6242443;28;20053;-71
2021/01/24 05:15:48;;;;;;;20.52;14.35;;;;;;;;;;6234655;28;20128;-70
2021/01/24 05:18:59;;;;;;;18.65;14.05;;;;;;;;;;6240394;28;20152;-70
2021/01/24 05:22:03;;;;;;;20.50;13.48;;;;;;;;;;6239022;28;20050;-71
2021/01/24 05:25:05;;;;;;;19.20;12.97;;;;;;;;;;6230402;28;20046;-71
2021/01/24 05:28:19;;;;;;;18.50;13.68;;;;;;;;;;6242300;28;20049;-70
2021/01/24 05:31:22;;;;;;;15.10;11.60;;;;;;;;;;6238440;28;20095;-73
2021/01/24 05:34:24;;;;;;;18.73;12.55;;;;;;;;;;6238787;28;20077;-71
2021/01/24 05:37:25;;;;;;;14.40;11.55;;;;;;;;;;6239824;28;20049;-72
2021/01/24 05:40:26;;;;;;;17.92;12.55;;;;;;;;;;6239461;28;20535;-70
2021/01/24 05:43:27;;;;;;;18.33;12.07;;;;;;;;;;6239433;28;20243;-71
2021/01/24 05:46:32;;;;;;;18.88;12.90;;;;;;;;;;6241306;28;20046;-71
2021/01/24 05:49:34;;;;;;;16.05;11.27;;;;;;;;;;6241590;28;20136;-72
2021/01/24 05:52:38;;;;;;;16.38;11.77;;;;;;;;;;6238000;28;20058;-71
2021/01/24 05:55:40;;;;;;;14.55;10.95;;;;;;;;;;6241304;28;20085;-68
2021/01/24 05:58:41;;;;;;;18.98;12.75;;;;;;;;;;6242147;28;20087;-71
2021/01/24 06:01:42;;;;;;;19.60;12.27;;;;;;;;;;6237527;28;20056;-72
2021/01/24 06:04:45;;;;;;;16.08;11.50;;;;;;;;;;6236185;28;20132;-71
2021/01/24 06:07:46;;;;;;;19.20;13.70;;;;;;;;;;6237884;28;20132;-71
2021/01/24 06:10:47;;;;;;;19.30;13.25;;;;;;;;;;6240282;28;20045;-71
2021/01/24 06:13:50;;;;;;;18.45;11.93;;;;;;;;;;6241142;28;20136;-71
2021/01/24 06:16:52;;;;;;;17.38;12.48;;;;;;;;;;6240868;28;20139;-70
2021/01/24 06:19:57;;;;;;;17.90;12.23;;;;;;;;;;6244100;28;20514;-70
2021/01/24 06:23:04;;;;;;;18.60;13.00;;;;;;;;;;6242622;28;20508;-70
2021/01/24 06:26:08;;;;;;;16.83;12.32;;;;;;;;;;6249074;28;20038;-71
2021/01/24 06:29:09;;;;;;;;;;;;;;;;;;6244010;28;20053;-71
2021/01/24 06:32:24;;;;;;;19.63;13.40;;;;;;;;;;6237751;28;19932;-70
2021/01/24 06:35:27;;;;;;;21.38;13.45;;;;;;;;;;6236010;28;20037;-69
2021/01/24 06:38:30;;;;;;;18.00;13.43;;;;;;;;;;6235940;28;20053;-73
2021/01/24 06:41:43;;;;;;;18.25;13.07;;;;;;;;;;6231087;28;20051;-71
2021/01/24 06:44:44;;;;;;;19.85;13.95;;;;;;;;;;6237152;28;20308;-70
2021/01/24 06:47:45;;;;;;;20.27;13.43;;;;;;;;;;6244553;28;20128;-71
2021/01/24 06:50:48;;;;;;;20.30;13.50;;;;;;;;;;6237100;28;20045;-71
2021/01/24 06:53:49;;;;;;;20.17;14.10;;;;;;;;;;6239525;28;20048;-70
2021/01/24 06:56:50;;;;;;;18.75;14.43;;;;;;;;;;6240411;28;20099;-70
2021/01/24 06:59:51;;;;;;;20.15;14.65;;;;;;;;;;6234265;28;20168;-70
2021/01/24 07:02:52;;;;;;;23.70;15.95;;;;;;;;;;6241532;28;20049;-72
2021/01/24 07:06:30;;;;;;;21.02;15.02;;;;;;;;;;6237315;28;20506;-72
2021/01/24 07:09:41;;;;;;;25.48;16.33;;;;;;;;;;6237322;28;20049;-71
2021/01/24 07:12:45;;;;;;;19.80;15.25;;;;;;;;;;6233975;28;20045;-73
2021/01/24 07:15:52;;;;;;;20.25;15.25;;;;;;;;;;6234765;28;20068;-70
2021/01/24 07:18:54;;;;;;;22.70;15.13;;;;;;;;;;6235583;28;20049;-71
2021/01/24 07:21:56;;;;;;;22.45;15.38;;;;;;;;;;6237491;28;20051;-71
2021/01/24 07:24:57;;;;;;;19.85;15.32;;;;;;;;;;6235894;28;20384;-71
2021/01/24 07:27:58;;;;;;;18.73;14.02;;;;;;;;;;6237615;28;20052;-70
2021/01/24 07:31:00;;;;;;;23.35;14.10;;;;;;;;;;6235865;28;20138;-71
2021/01/24 07:34:01;;;;;;;17.50;13.55;;;;;;;;;;6236112;28;20045;-71
2021/01/24 07:37:05;;;;;;;19.90;13.50;;;;;;;;;;6230921;28;20056;-72
2021/01/24 07:40:07;;;;;;;20.60;14.27;;;;;;;;;;6236720;28;20487;-71
2021/01/24 07:43:08;;;;;;;18.48;12.55;;;;;;;;;;6237552;28;20055;-71
2021/01/24 07:46:09;;;;;;;19.90;13.60;;;;;;;;;;6233198;28;20128;-70
2021/01/24 07:49:11;;;;;;;20.13;14.00;;;;;;;;;;6234686;28;20479;-74
2021/01/24 07:52:12;;;;;;;17.98;12.60;;;;;;;;;;6237226;28;20060;-71
2021/01/24 07:55:13;;;;;;;13.48;10.52;;;;;;;;;;6214000;28;20115;-71
2021/01/24 07:58:15;;;;;;;13.50;10.10;;;;;;;;;;6228211;28;20084;-71
2021/01/24 08:01:16;;;;;;;16.55;11.13;;;;;;;;;;5543436;28;10000778;-70
2021/01/24 08:04:17;;;;;;;21.25;14.38;;;;;;;;;;6234518;28;20045;-71
2021/01/24 08:07:19;;;;;;;21.52;14.95;;;;;;;;;;6235676;28;20129;-67
2021/01/24 08:10:20;;;;;;;22.42;16.10;;;;;;;;;;6234761;28;20046;-69
2021/01/24 08:13:21;;;;;;;23.52;16.30;;;;;;;;;;6237922;28;20570;-69
2021/01/24 08:16:26;;;;;;;26.35;17.42;;;;;;;;;;6239260;28;20041;-72
2021/01/24 08:19:27;;;;;;;31.50;19.83;;;;;;;;;;6236695;28;20046;-71
2021/01/24 08:22:29;;;;;;;22.85;16.65;;;;;;;;;;6235606;28;20515;-69
2021/01/24 08:25:30;;;;;;;25.77;16.98;;;;;;;;;;6231875;28;20145;-68
2021/01/24 08:28:32;;;;;;;26.33;16.90;;;;;;;;;;6233231;28;20061;-68
2021/01/24 08:31:34;;;;;;;23.80;18.02;;;;;;;;;;6238375;28;20152;-72
2021/01/24 08:34:35;;;;;;;24.95;16.27;;;;;;;;;;6223628;28;20105;-68
2021/01/24 08:37:37;;;;;;;24.35;16.45;;;;;;;;;;6233639;28;20132;-68
2021/01/24 08:40:39;;;;;;;20.85;14.05;;;;;;;;;;6236388;28;20048;-70
2021/01/24 08:43:40;;;;;;;20.23;13.27;;;;;;;;;;6230966;28;20049;-74
2021/01/24 08:46:42;;;;;;;13.85;11.27;;;;;;;;;;6231145;28;20162;-67
2021/01/24 08:49:43;;;;;;;17.00;11.52;;;;;;;;;;6232341;28;20092;-69
2021/01/24 08:52:53;;;;;;;15.32;11.48;;;;;;;;;;6237774;28;20049;-68
2021/01/24 08:55:54;;;;;;;15.80;10.43;;;;;;;;;;6233231;28;20049;-68
2021/01/24 08:58:55;;;;;;;12.15;9.50;;;;;;;;;;6233110;28;20172;-68
2021/01/24 09:01:56;;;;;;;13.48;9.60;;;;;;;;;;6233909;28;20054;-68
2021/01/24 09:04:57;;;;;;;11.95;8.77;;;;;;;;;;6233853;28;20137;-72
2021/01/24 09:07:59;;;;;;;14.48;10.07;;;;;;;;;;6223854;28;20499;-71
2021/01/24 09:11:00;;;;;;;18.70;11.93;;;;;;;;;;6201632;28;20049;-72
2021/01/24 09:14:01;;;;;;;17.13;11.65;;;;;;;;;;6234158;28;20498;-70
2021/01/24 09:17:10;;;;;;;17.05;12.88;;;;;;;;;;6235795;28;20045;-71
2021/01/24 09:20:12;;;;;;;15.55;12.60;;;;;;;;;;6231356;28;20055;-72
2021/01/24 09:23:14;;;;;;;17.02;12.82;;;;;;;;;;6235286;28;20062;-71
2021/01/24 09:26:15;;;;;;;16.25;11.95;;;;;;;;;;6233004;28;20060;-71
2021/01/24 09:29:17;;;;;;;16.20;12.30;;;;;;;;;;6237093;28;20041;-71
2021/01/24 09:32:18;;;;;;;16.65;11.65;;;;;;;;;;6234321;28;20083;-72
2021/01/24 09:35:19;;;;;;;14.05;11.48;;;;;;;;;;6237622;28;20050;-71
2021/01/24 09:38:21;;;;;;;15.63;11.70;;;;;;;;;;6229729;28;20044;-73
2021/01/24 09:41:22;;;;;;;10.90;8.98;;;;;;;;;;6234535;28;20477;-71
2021/01/24 09:44:23;;;;;;;12.27;9.25;;;;;;;;;;6228723;28;20053;-69
2021/01/24 09:47:24;;;;;;;11.90;9.93;;;;;;;;;;6233290;28;20069;-69
2021/01/24 09:50:25;;;;;;;10.35;8.55;;;;;;;;;;6235079;28;20080;-73
2021/01/24 09:53:27;;;;;;;10.88;8.27;;;;;;;;;;6230592;28;20104;-70
2021/01/24 09:56:29;;;;;;;9.68;8.10;;;;;;;;;;6231810;28;20224;-71
2021/01/24 09:59:30;;;;;;;12.05;8.63;;;;;;;;;;6239047;28;20591;-70
2021/01/24 10:02:31;;;;;;;11.10;8.80;;;;;;;;;;6239651;28;20053;-70
2021/01/24 10:05:32;;;;;;;9.25;8.25;;;;;;;;;;6236594;28;20046;-70
2021/01/24 10:08:34;;;;;;;11.43;8.77;;;;;;;;;;6235504;28;20565;-69
2021/01/24 10:11:35;;;;;;;10.75;9.15;;;;;;;;;;6233127;28;20157;-70
2021/01/24 10:14:36;;;;;;;10.93;8.90;;;;;;;;;;6238667;28;20124;-70
2021/01/24 10:17:37;;;;;;;11.02;8.73;;;;;;;;;;6237502;28;20056;-70
2021/01/24 10:20:38;;;;;;;10.82;8.95;;;;;;;;;;6240470;28;20491;-68
2021/01/24 10:23:40;;;;;;;10.10;8.38;;;;;;;;;;6237349;28;20060;-72
2021/01/24 10:26:41;;;;;;;11.07;8.27;;;;;;;;;;6237478;28;20068;-70
2021/01/24 10:29:43;;;;;;;8.98;8.00;;;;;;;;;;6231125;28;20133;-71
2021/01/24 10:32:44;;;;;;;10.93;7.45;;;;;;;;;;6231875;28;20057;-69
2021/01/24 10:35:45;;;;;;;9.48;7.55;;;;;;;;;;6228462;28;20075;-69
2021/01/24 10:38:49;;;;;;;9.20;7.00;;;;;;;;;;6234664;28;20053;-70
2021/01/24 10:41:50;;;;;;;;;;;;;;;;;;6232345;28;20114;-68
2021/01/24 10:44:51;;;;;;;8.77;7.22;;;;;;;;;;6232845;28;20420;-69
2021/01/24 10:47:52;;;;;;;9.20;6.50;;;;;;;;;;6234527;28;20513;-70
2021/01/24 10:50:53;;;;;;;10.10;6.43;;;;;;;;;;6234367;28;20473;-70
2021/01/24 10:53:55;;;;;;;9.63;7.10;;;;;;;;;;6236097;28;20049;-72
2021/01/24 10:56:56;;;;;;;10.15;7.47;;;;;;;;;;6232620;28;20057;-70
2021/01/24 10:59:57;;;;;;;9.60;7.00;;;;;;;;;;6236090;28;20195;-68
2021/01/24 11:02:58;;;;;;;9.60;7.25;;;;;;;;;;6230988;28;20475;-68
2021/01/24 11:05:59;;;;;;;10.05;7.47;;;;;;;;;;6231671;28;20064;-69
2021/01/24 11:09:01;;;;;;;10.70;7.88;;;;;;;;;;6231937;28;20466;-70
2021/01/24 11:12:03;;;;;;;10.88;8.55;;;;;;;;;;6237310;28;20069;-71
2021/01/24 11:15:05;;;;;;;13.05;9.65;;;;;;;;;;6230160;28;20062;-68
2021/01/24 11:21:16;;;;;;;11.63;9.55;;;;;;;;;;7601924;22;20019;-73
2021/01/24 11:24:18;;;;;;;13.90;9.38;;;;;;;;;;6242807;28;20041;-72
2021/01/24 11:27:19;;;;;;;9.57;8.30;;;;;;;;;;6251967;28;20045;-73
2021/01/24 11:30:21;;;;;;;12.57;8.32;;;;;;;;;;6252870;28;20483;-72
2021/01/24 11:33:22;;;;;;;11.63;8.95;;;;;;;;;;6258083;28;20053;-71
2021/01/24 11:36:23;;;;;;;12.25;8.30;;;;;;;;;;6258991;28;20132;-71
2021/01/24 11:39:25;;;;;;;10.85;8.60;;;;;;;;;;6255857;28;20048;-71
2021/01/24 11:42:26;;;;;;;12.52;8.00;;;;;;;;;;6257074;28;20056;-72
2021/01/24 11:45:27;;;;;;;9.35;8.05;;;;;;;;;;6258232;28;20046;-73
2021/01/24 11:48:28;;;;;;;12.45;8.75;;;;;;;;;;6256995;28;20805;-71
2021/01/24 11:51:29;;;;;;;11.50;9.30;;;;;;;;;;6257662;28;20053;-72
2021/01/24 11:54:31;;;;;;;12.40;8.88;;;;;;;;;;6255691;28;20037;-72
2021/01/24 11:57:32;;;;;;;10.52;8.15;;;;;;;;;;6255257;28;20155;-71
2021/01/24 12:00:33;;;;;;;9.05;7.82;;;;;;;;;;6253418;28;20052;-72
2021/01/24 12:03:34;;;;;;;12.13;8.18;;;;;;;;;;6253831;28;20037;-72
2021/01/24 12:06:35;;;;;;;10.80;7.90;;;;;;;;;;6253052;28;20059;-73
2021/01/24 12:09:37;;;;;;;8.10;7.30;;;;;;;;;;6250378;28;20071;-71
2021/01/24 12:12:38;;;;;;;10.88;7.00;;;;;;;;;;5556252;28;10000561;-72
2021/01/24 12:15:39;;;;;;;7.97;6.97;;;;;;;;;;6259594;28;20049;-72
2021/01/24 12:18:40;;;;;;;7.75;6.93;;;;;;;;;;6254428;28;20144;-72
2021/01/24 12:21:41;;;;;;;6.60;5.90;;;;;;;;;;6249188;28;21057;-72
2021/01/24 12:24:43;;;;;;;8.13;6.80;;;;;;;;;;6234711;28;20630;-72
2021/01/24 12:27:44;;;;;;;7.38;6.10;;;;;;;;;;6234926;28;20702;-72
2021/01/24 12:30:45;;;;;;;8.63;6.35;;;;;;;;;;6230999;28;20056;-72
2021/01/24 12:33:46;;;;;;;9.38;6.05;;;;;;;;;;6232822;28;20046;-71
2021/01/24 12:36:47;;;;;;;8.18;6.38;;;;;;;;;;6232222;28;20098;-72
2021/01/24 12:39:49;;;;;;;7.63;5.85;;;;;;;;;;6232041;28;20105;-72
2021/01/24 12:42:50;;;;;;;10.93;5.53;;;;;;;;;;6233582;28;20045;-71
2021/01/24 12:45:51;;;;;;;7.07;5.00;;;;;;;;;;6234800;28;20046;-71
2021/01/24 12:48:52;;;;;;;5.97;4.47;;;;;;;;;;6233635;28;20041;-73
2021/01/24 12:51:53;;;;;;;6.28;4.68;;;;;;;;;;6231829;28;20619;-71
2021/01/24 12:54:54;;;;;;;5.82;4.13;;;;;;;;;;6241683;28;20080;-72
2021/01/24 12:57:56;;;;;;;5.28;4.25;;;;;;;;;;6236316;28;20053;-71
2021/01/24 13:00:58;;;;;;;6.45;4.38;;;;;;;;;;6233886;28;20073;-72
2021/01/24 13:03:59;;;;;;;5.68;4.07;;;;;;;;;;6233561;28;20045;-71
2021/01/24 13:07:00;;;;;;;6.10;4.28;;;;;;;;;;6236033;28;20578;-72
2021/01/24 13:10:02;;;;;;;8.95;4.00;;;;;;;;;;6236306;28;20155;-71
2021/01/24 13:13:04;;;;;;;4.40;3.70;;;;;;;;;;6229928;28;20369;-72
2021/01/24 13:16:07;;;;;;;4.63;3.30;;;;;;;;;;6237630;28;20598;-72
2021/01/24 13:19:08;;;;;;;4.55;3.92;;;;;;;;;;6237991;28;20505;-71
2021/01/24 13:22:09;;;;;;;3.97;3.00;;;;;;;;;;6240740;28;20610;-71
2021/01/24 13:25:10;;;;;;;4.32;3.00;;;;;;;;;;6252017;28;20052;-71
2021/01/24 13:28:11;;;;;;;7.75;3.15;;;;;;;;;;6237303;28;20076;-72
2021/01/24 13:31:13;;;;;;;5.75;2.72;;;;;;;;;;6240988;28;20045;-72
2021/01/24 13:34:14;;;;;;;2.78;1.77;;;;;;;;;;6240540;28;20079;-72
2021/01/24 13:37:15;;;;;;;4.72;0.80;;;;;;;;;;6229981;28;20052;-71
2021/01/24 13:40:17;;;;;;;1.45;0.85;;;;;;;;;;6232789;28;20045;-72
2021/01/24 13:43:19;;;;;;;1.27;0.52;;;;;;;;;;6240854;28;20057;-72
2021/01/24 13:46:20;;;;;;;1.23;0.30;;;;;;;;;;6228899;28;20046;-70
2021/01/24 13:49:21;;;;;;;3.03;0.60;;;;;;;;;;6230257;28;20060;-72
2021/01/24 13:52:22;;;;;;;0.85;0.40;;;;;;;;;;6232045;28;20038;-72
2021/01/24 13:55:24;;;;;;;0.50;0.25;;;;;;;;;;6237336;28;20403;-72
2021/01/24 13:58:25;;;;;;;0.93;0.35;;;;;;;;;;6230942;28;20087;-72
2021/01/24 14:01:26;;;;;;;1.23;0.80;;;;;;;;;;6226902;28;20042;-73
2021/01/24 14:04:27;;;;;;;1.08;0.40;;;;;;;;;;6229168;28;20076;-72
2021/01/24 14:07:28;;;;;;;1.25;0.60;;;;;;;;;;6233496;28;20107;-71
2021/01/24 14:10:30;;;;;;;0.95;0.30;;;;;;;;;;6224888;28;20152;-72
2021/01/24 14:13:31;;;;;;;0.40;0.30;;;;;;;;;;6233629;28;20073;-71
2021/01/24 14:16:32;;;;;;;2.53;0.57;;;;;;;;;;6233827;28;20450;-72
2021/01/24 14:19:33;;;;;;;0.70;0.50;;;;;;;;;;6232842;28;20041;-71
2021/01/24 14:22:34;;;;;;;0.50;0.30;;;;;;;;;;6240341;28;20049;-72
2021/01/24 14:25:36;;;;;;;2.45;0.40;;;;;;;;;;6232613;28;20053;-72
2021/01/24 14:28:37;;;;;;;0.68;0.43;;;;;;;;;;6234246;28;20133;-71
2021/01/24 14:31:45;;;;;;;0.65;0.40;;;;;;;;;;6232518;28;20099;-72
2021/01/24 14:34:46;;;;;;;0.95;0.40;;;;;;;;;;6228024;28;20065;-72
2021/01/24 14:37:47;;;;;;;0.57;0.40;;;;;;;;;;6228044;28;20136;-71
2021/01/24 14:40:49;;;;;;;1.25;1.02;;;;;;;;;;6230791;28;20038;-72
2021/01/24 14:43:50;;;;;;;2.63;0.50;;;;;;;;;;6230206;28;20107;-72
2021/01/24 14:46:53;;;;;;;2.28;0.80;;;;;;;;;;6240139;28;20041;-71
2021/01/24 14:49:54;;;;;;;0.75;0.50;;;;;;;;;;6230870;28;20049;-72
2021/01/24 14:52:55;;;;;;;1.05;0.70;;;;;;;;;;6221162;28;20115;-71
2021/01/24 14:55:57;;;;;;;0.40;0.32;;;;;;;;;;6225983;28;20416;-72
2021/01/24 14:58:58;;;;;;;2.95;0.70;;;;;;;;;;6238181;28;20053;-73
2021/01/24 15:01:59;;;;;;;2.97;0.45;;;;;;;;;;6228116;28;20049;-72
2021/01/24 15:05:00;;;;;;;1.88;0.40;;;;;;;;;;6232938;28;20054;-72
2021/01/24 15:08:01;;;;;;;0.75;0.30;;;;;;;;;;6222427;28;20058;-72
2021/01/24 15:11:03;;;;;;;7.05;0.75;;;;;;;;;;6223394;28;20053;-72
2021/01/24 15:14:04;;;;;;;1.42;0.73;;;;;;;;;;6228034;28;20156;-72
2021/01/24 15:17:06;;;;;;;2.80;0.63;;;;;;;;;;6225875;28;20057;-72
2021/01/24 15:20:08;;;;;;;5.82;0.80;;;;;;;;;;6227418;28;20060;-72
2021/01/24 15:23:09;;;;;;;1.02;0.63;;;;;;;;;;6225640;28;20231;-70
2021/01/24 15:26:11;;;;;;;1.83;1.00;;;;;;;;;;6228312;28;20128;-72
2021/01/24 15:29:12;;;;;;;2.45;0.50;;;;;;;;;;6230672;28;20541;-72
2021/01/24 15:32:13;;;;;;;2.03;0.70;;;;;;;;;;6232243;28;20050;-72
2021/01/24 15:35:14;;;;;;;2.22;0.82;;;;;;;;;;6236274;28;20056;-72
2021/01/24 15:38:16;;;;;;;3.97;2.30;;;;;;;;;;6230539;28;20053;-72
2021/01/24 15:41:17;;;;;;;2.80;0.90;;;;;;;;;;6224688;28;20045;-71
2021/01/24 15:44:20;;;;;;;2.00;0.68;;;;;;;;;;6219813;28;20053;-71
2021/01/24 15:47:21;;;;;;;0.85;0.52;;;;;;;;;;6222809;28;20061;-71
2021/01/24 15:50:23;;;;;;;1.52;0.68;;;;;;;;;;6224956;28;20604;-72
2021/01/24 15:53:24;;;;;;;4.72;1.10;;;;;;;;;;6227618;28;20044;-72
2021/01/24 15:56:26;;;;;;;2.72;1.13;;;;;;;;;;6231090;28;20046;-72
2021/01/24 15:59:27;;;;;;;3.88;1.00;;;;;;;;;;5537499;28;10000714;-72
2021/01/24 16:02:28;;;;;;;1.17;0.60;;;;;;;;;;6223074;28;20053;-72
2021/01/24 16:05:29;;;;;;;5.28;1.10;;;;;;;;;;6230321;28;20125;-72
2021/01/24 16:08:30;;;;;;;4.97;1.10;;;;;;;;;;6232723;28;20045;-71
2021/01/24 16:11:32;;;;;;;3.65;1.40;;;;;;;;;;6230380;28;20680;-71
2021/01/24 16:14:33;;;;;;;4.18;1.60;;;;;;;;;;6232652;28;20446;-72
2021/01/24 16:17:34;;;;;;;6.43;2.00;;;;;;;;;;6240708;28;20136;-72
2021/01/24 16:20:35;;;;;;;5.75;1.92;;;;;;;;;;6234392;28;20049;-71
2021/01/24 16:23:37;;;;;;;4.43;2.80;;;;;;;;;;6224298;28;20060;-70
2021/01/24 16:26:38;;;;;;;5.47;3.42;;;;;;;;;;6226659;28;20053;-71
2021/01/24 16:29:39;;;;;;;7.63;3.67;;;;;;;;;;6229160;28;20046;-71
2021/01/24 16:32:40;;;;;;;4.97;3.47;;;;;;;;;;6233299;28;20410;-71
2021/01/24 16:35:41;;;;;;;6.10;3.97;;;;;;;;;;6234417;28;20056;-72
2021/01/24 16:38:42;;;;;;;5.95;4.40;;;;;;;;;;6235870;28;20049;-72
2021/01/24 16:41:44;;;;;;;7.45;4.75;;;;;;;;;;6235006;28;20407;-72
2021/01/24 16:44:46;;;;;;;6.60;4.70;;;;;;;;;;6229864;28;20048;-71
2021/01/24 16:47:47;;;;;;;7.05;4.95;;;;;;;;;;6233696;28;20072;-71
2021/01/24 16:50:48;;;;;;;7.32;4.65;;;;;;;;;;6235525;28;20476;-71
2021/01/24 16:53:49;;;;;;;7.25;4.95;;;;;;;;;;6241421;28;20568;-71
2021/01/24 16:56:51;;;;;;;10.77;5.00;;;;;;;;;;6247157;28;20045;-71
2021/01/24 16:59:52;;;;;;;9.50;5.05;;;;;;;;;;6235965;28;20124;-71
2021/01/24 17:02:53;;;;;;;6.32;5.07;;;;;;;;;;6236620;28;20602;-71
2021/01/24 17:05:54;;;;;;;6.40;4.53;;;;;;;;;;6242224;28;20083;-71
2021/01/24 17:08:55;;;;;;;8.40;4.70;;;;;;;;;;6244079;28;20076;-71
2021/01/24 17:11:57;;;;;;;6.50;4.70;;;;;;;;;;6230528;28;20501;-72
2021/01/24 17:14:58;;;;;;;7.13;4.80;;;;;;;;;;6230041;28;20049;-71
2021/01/24 17:17:59;;;;;;;7.00;4.32;;;;;;;;;;6232871;28;20053;-72
2021/01/24 17:21:00;;;;;;;9.88;5.13;;;;;;;;;;6232360;28;20045;-71
2021/01/24 17:24:01;;;;;;;6.03;4.30;;;;;;;;;;6231414;28;20504;-71
2021/01/24 17:27:03;;;;;;;6.20;4.35;;;;;;;;;;6238576;28;20054;-71
2021/01/24 17:30:06;;;;;;;6.25;4.57;;;;;;;;;;6235047;28;20099;-71
2021/01/24 17:33:07;;;;;;;5.32;3.83;;;;;;;;;;6232847;28;20125;-71
2021/01/24 17:36:08;;;;;;;6.93;4.53;;;;;;;;;;6230968;28;20140;-71
2021/01/24 17:39:09;;;;;;;5.68;4.32;;;;;;;;;;6229991;28;20179;-71
2021/01/24 17:42:11;;;;;;;8.90;4.60;;;;;;;;;;6229814;28;20554;-71
2021/01/24 17:45:13;;;;;;;8.20;5.28;;;;;;;;;;6232104;28;20048;-71
2021/01/24 17:48:14;;;;;;;9.00;5.30;;;;;;;;;;6244360;28;20055;-71
2021/01/24 17:51:15;;;;;;;9.88;6.40;;;;;;;;;;6236460;28;20668;-71
2021/01/24 17:54:16;;;;;;;9.20;6.00;;;;;;;;;;6233869;28;20647;-71